Time;durP1;ratioP1;P1;durP2;ratioP2;P2;SDS_P1;SDS_P2;PMS_P1;PMS_P2;Temp;Humidity;BMP_temperature;BMP_pressure;BME280_temperature;BME280_humidity;BME280_pressure;Samples;Min_cycle;Max_cycle;Signal;HPM_P1;HPM_P2
2022/10/11 00:01:25;;;;;;;;;4.00;2.00;;;;;9.48;73.05;102431.00;4934543;29;10262;-65
2022/10/11 00:03:51;;;;;;;;;2.00;2.00;;;;;9.46;73.06;102427.59;4935360;29;10175;-66
2022/10/11 00:06:17;;;;;;;;;5.00;5.00;;;;;9.44;72.49;102432.31;4934618;29;10192;-65
2022/10/11 00:08:44;;;;;;;;;3.75;3.25;;;;;9.41;72.54;102436.13;4934799;29;10341;-66
2022/10/11 00:11:10;;;;;;;;;5.25;4.00;;;;;9.40;72.67;102437.13;4934001;29;10439;-64
2022/10/11 00:13:37;;;;;;;;;1.00;1.00;;;;;9.39;73.18;102440.78;4934673;29;10267;-64
2022/10/11 00:16:11;;;;;;;;;3.25;3.25;;;;;9.40;73.32;102452.41;4934800;29;10314;-64
2022/10/11 00:18:38;;;;;;;;;4.25;4.25;;;;;9.40;73.04;102445.19;4933837;29;10838;-65
2022/10/11 00:21:07;;;;;;;;;3.50;2.00;;;;;9.41;72.87;102446.03;4934072;29;11025;-66
2022/10/11 00:23:34;;;;;;;;;2.00;2.00;;;;;9.38;72.13;102452.53;4933853;29;10229;-67
2022/10/11 00:26:03;;;;;;;;;3.75;2.50;;;;;9.36;72.54;102462.59;4933733;29;10945;-64
2022/10/11 00:28:31;;;;;;;;;4.25;4.00;;;;;9.32;73.02;102450.44;4934608;29;10437;-66
2022/10/11 00:30:57;;;;;;;;;5.00;4.00;;;;;9.31;72.54;102459.47;4933811;29;10270;-64
2022/10/11 00:33:24;;;;;;;;;2.00;2.00;;;;;9.30;72.83;102465.84;4934392;29;10263;-66
2022/10/11 00:35:51;;;;;;;;;1.75;1.75;;;;;9.31;73.12;102464.00;4934301;29;10263;-66
2022/10/11 00:38:17;;;;;;;;;2.00;2.00;;;;;9.30;73.31;102460.47;4933805;29;10113;-68
2022/10/11 00:40:44;;;;;;;;;4.00;4.00;;;;;9.29;73.51;102452.56;4934269;29;10050;-66
2022/10/11 00:43:16;;;;;;;;;4.50;3.00;;;;;9.27;73.19;102463.44;4934516;29;11093;-67
2022/10/11 00:46:22;;;;;;;;;2.00;2.00;;;;;9.24;72.80;102463.75;4934315;29;11077;-66
2022/10/11 00:49:06;;;;;;;;;3.50;2.50;;;;;9.21;73.19;102469.44;4933150;29;10477;-68
2022/10/11 00:51:40;;;;;;;;;2.00;1.75;;;;;9.22;72.76;102467.59;4933780;29;10300;-68
2022/10/11 00:54:12;;;;;;;;;1.00;1.00;;;;;9.22;73.26;102471.13;4933195;29;10314;-67
2022/10/11 00:56:39;;;;;;;;;4.75;4.00;;;;;9.23;73.34;102467.41;4930135;29;10353;-67
2022/10/11 00:59:12;;;;;;;;;3.00;1.75;;;;;9.24;73.37;102468.28;4933305;29;10359;-66
2022/10/11 01:01:39;;;;;;;;;1.00;1.00;;;;;9.20;73.55;102467.75;4928314;29;10262;-66
2022/10/11 01:04:06;;;;;;;;;3.50;1.50;;;;;9.17;73.27;102468.03;4933577;29;10898;-67
2022/10/11 01:06:33;;;;;;;;;2.00;2.00;;;;;9.12;73.07;102470.31;4933958;29;11029;-68
2022/10/11 01:09:00;;;;;;;;;2.00;2.00;;;;;9.11;72.96;102468.59;4932642;29;10322;-67
2022/10/11 01:11:28;;;;;;;;;1.00;1.00;;;;;9.09;72.78;102471.44;4933308;29;10392;-67
2022/10/11 01:14:36;;;;;;;;;4.00;4.00;;;;;9.09;73.05;102473.28;4944796;29;10242;-68
2022/10/11 01:17:37;;;;;;;;;4.25;2.00;;;;;9.12;73.01;102475.69;4930427;29;10395;-67
2022/10/11 01:20:21;;;;;;;;;0.00;0.00;;;;;9.14;72.84;102471.00;4923120;29;10248;-67
2022/10/11 01:22:56;;;;;;;;;2.00;1.00;;;;;9.11;73.41;102476.66;4924353;29;10188;-68
2022/10/11 01:25:35;;;;;;;;;1.50;1.25;;;;;9.08;73.04;102480.50;4933033;29;11014;-67
2022/10/11 01:28:27;;;;;;;;;2.00;1.00;;;;;9.05;73.32;102474.56;4932922;29;10165;-65
2022/10/11 01:31:02;;;;;;;;;1.50;1.50;;;;;9.02;72.87;102478.34;4932444;29;10299;-65
2022/10/11 01:33:36;;;;;;;;;0.75;0.75;;;;;9.03;73.23;102481.88;4933041;29;10164;-65
2022/10/11 01:36:29;;;;;;;;;4.00;2.00;;;;;9.02;72.94;102486.41;4930109;29;10115;-65
2022/10/11 01:39:08;;;;;;;;;2.00;2.00;;;;;9.04;73.22;102486.28;4929381;29;10345;-66
2022/10/11 01:41:45;;;;;;;;;1.00;1.00;;;;;9.03;73.36;102492.63;4927220;29;10326;-66
2022/10/11 01:44:12;;;;;;;;;1.00;0.25;;;;;9.02;73.03;102491.78;4932343;29;10177;-66
2022/10/11 01:46:39;;;;;;;;;1.00;1.00;;;;;9.01;73.21;102494.63;4932651;29;10178;-64
2022/10/11 01:49:06;;;;;;;;;2.00;2.00;;;;;8.99;73.14;102497.44;4931703;29;10263;-65
2022/10/11 01:51:38;;;;;;;;;1.00;1.00;;;;;8.99;73.01;102496.59;4932499;29;10321;-65
2022/10/11 01:54:32;;;;;;;;;1.00;1.00;;;;;8.95;73.16;102496.03;4928556;29;10439;-66
2022/10/11 01:57:52;;;;;;;;;2.00;2.00;;;;;8.95;73.07;102500.56;4929255;29;10312;-67
2022/10/11 02:00:22;;;;;;;;;4.50;3.00;;;;;8.94;73.08;102496.19;4932144;29;10474;-67
2022/10/11 02:03:18;;;;;;;;;1.25;1.25;;;;;8.90;73.18;102498.31;4947476;29;10334;-65
2022/10/11 02:05:55;;;;;;;;;2.50;2.00;;;;;8.88;73.03;102505.69;4931807;29;10667;-65
2022/10/11 02:08:48;;;;;;;;;1.00;1.00;;;;;8.88;73.66;102500.31;4935921;29;10655;-65
2022/10/11 02:11:30;;;;;;;;;3.50;2.00;;;;;8.87;73.79;102501.28;4935675;29;10483;-66
2022/10/11 02:14:11;;;;;;;;;2.25;2.00;;;;;8.85;73.50;102501.44;4936031;29;10491;-66
2022/10/11 02:16:53;;;;;;;;;1.75;1.00;;;;;8.84;73.51;102504.25;4917631;29;10388;-65
2022/10/11 02:19:25;;;;;;;;;1.75;1.00;;;;;8.80;72.89;102506.38;4933886;29;10416;-65
2022/10/11 02:21:55;;;;;;;;;2.00;2.00;;;;;8.79;72.71;102501.13;4937181;29;10255;-65
2022/10/11 02:24:29;;;;;;;;;1.00;1.00;;;;;8.78;72.97;102494.06;4936352;29;10530;-65
2022/10/11 02:26:58;;;;;;;;;1.25;0.75;;;;;8.77;73.58;102492.38;4935979;29;10307;-66
2022/10/11 02:29:28;;;;;;;;;2.00;1.00;;;;;8.76;73.18;102496.91;4935716;29;10349;-65
2022/10/11 02:31:57;;;;;;;;;1.75;1.75;;;;;8.75;73.19;102497.91;4933833;29;10263;-66
2022/10/11 02:34:30;;;;;;;;;1.75;1.75;;;;;8.73;73.11;102491.81;4932415;29;10435;-65
2022/10/11 02:37:11;;;;;;;;;2.00;1.25;;;;;8.73;73.29;102501.72;4934562;29;11156;-65
2022/10/11 02:39:49;;;;;;;;;0.00;0.00;;;;;8.71;73.50;102504.56;4923205;29;10405;-65
2022/10/11 02:42:21;;;;;;;;;1.00;1.00;;;;;8.71;73.14;102496.50;4937714;29;10317;-65
2022/10/11 02:44:59;;;;;;;;;3.25;1.75;;;;;8.72;73.26;102494.66;4937340;29;10518;-65
2022/10/11 02:47:28;;;;;;;;;1.50;0.25;;;;;8.70;73.20;102493.94;4936209;29;10320;-67
2022/10/11 02:49:55;;;;;;;;;1.00;1.00;;;;;8.68;73.01;102496.78;4936699;29;10361;-66
2022/10/11 02:52:21;;;;;;;;;1.00;1.00;;;;;8.68;72.88;102502.13;4937686;29;10942;-65
2022/10/11 02:54:47;;;;;;;;;0.25;0.25;;;;;8.67;73.08;102495.09;4936112;29;10289;-66
2022/10/11 02:57:14;;;;;;;;;1.00;1.00;;;;;8.67;72.95;102497.78;4935322;29;10264;-65
2022/10/11 02:59:40;;;;;;;;;4.00;2.00;;;;;8.65;73.44;102495.22;4935749;29;10318;-66
2022/10/11 03:02:06;;;;;;;;;3.75;1.25;;;;;8.64;73.38;102498.03;4936358;29;10331;-66
2022/10/11 03:04:33;;;;;;;;;3.50;1.25;;;;;8.63;73.32;102499.03;4935809;29;10332;-65
2022/10/11 03:06:59;;;;;;;;;2.00;1.00;;;;;8.64;73.54;102506.94;4936462;29;10243;-65
2022/10/11 03:09:26;;;;;;;;;1.00;1.00;;;;;8.67;73.20;102503.13;4937253;28;10322;-64
2022/10/11 03:11:52;;;;;;;;;1.75;1.25;;;;;8.69;73.17;102505.66;4939779;28;10181;-65
2022/10/11 03:14:18;;;;;;;;;3.00;1.00;;;;;8.66;73.23;102509.47;4935527;29;10414;-66
2022/10/11 03:16:45;;;;;;;;;1.00;1.00;;;;;8.64;72.97;102504.25;4935879;29;10349;-65
2022/10/11 03:19:11;;;;;;;;;1.00;1.00;;;;;8.60;73.04;102496.63;4935432;29;11062;-65
2022/10/11 03:21:44;;;;;;;;;1.00;1.00;;;;;8.57;72.98;102507.63;4935066;28;10424;-65
2022/10/11 03:24:10;;;;;;;;;1.00;1.00;;;;;8.55;73.73;102504.25;4933497;29;10357;-66
2022/10/11 03:26:37;;;;;;;;;2.00;2.00;;;;;8.52;72.88;102500.00;4935955;29;10338;-67
2022/10/11 03:29:03;;;;;;;;;1.00;0.50;;;;;8.52;73.13;102507.22;4935094;29;10410;-67
2022/10/11 03:31:29;;;;;;;;;1.00;1.00;;;;;8.51;73.55;102510.91;4935589;29;10342;-64
2022/10/11 03:33:56;;;;;;;;;2.00;2.00;;;;;8.48;73.08;102501.28;4935884;29;11025;-66
2022/10/11 03:36:22;;;;;;;;;0.25;0.25;;;;;8.46;73.42;102503.25;4935342;29;10441;-64
2022/10/11 03:38:49;;;;;;;;;2.00;2.00;;;;;8.45;72.79;102511.44;4935066;29;10297;-65
2022/10/11 03:41:15;;;;;;;;;2.00;2.00;;;;;8.44;72.74;102515.97;4935189;29;10490;-65
2022/10/11 03:43:41;;;;;;;;;0.75;0.75;;;;;8.44;72.84;102515.13;4935259;29;10490;-66
2022/10/11 03:46:08;;;;;;;;;2.00;1.25;;;;;8.44;73.46;102512.44;4935512;29;10681;-66
2022/10/11 03:48:34;;;;;;;;;1.50;1.00;;;;;8.46;73.15;102521.19;4935502;29;11112;-65
2022/10/11 03:51:01;;;;;;;;;1.00;1.00;;;;;8.44;73.16;102526.69;4935518;29;11045;-65
2022/10/11 03:53:28;;;;;;;;;1.00;1.00;;;;;8.46;73.09;102523.88;4935627;29;10448;-66
2022/10/11 03:55:55;;;;;;;;;2.00;1.00;;;;;8.44;73.26;102520.50;4935502;29;10326;-67
2022/10/11 03:58:22;;;;;;;;;4.00;1.00;;;;;8.44;73.23;102524.00;4935810;29;11151;-67
2022/10/11 04:00:50;;;;;;;;;5.00;1.00;;;;;8.42;73.01;102524.13;4935080;29;10388;-65
2022/10/11 04:03:17;;;;;;;;;1.00;1.00;;;;;8.41;73.24;102527.81;4935553;29;10588;-66
2022/10/11 04:05:43;;;;;;;;;0.00;0.00;;;;;8.39;73.03;102518.22;4935131;29;10422;-65
2022/10/11 04:08:10;;;;;;;;;0.00;0.00;;;;;8.39;73.44;102526.28;4934465;29;10415;-66
2022/10/11 04:10:38;;;;;;;;;1.75;1.00;;;;;8.38;73.26;102522.72;4933536;29;10677;-64
2022/10/11 04:13:05;;;;;;;;;4.00;1.00;;;;;8.40;73.50;102534.19;4935166;29;10426;-65
2022/10/11 04:15:31;;;;;;;;;0.75;0.75;;;;;8.41;73.40;102529.66;4934872;29;10490;-66
2022/10/11 04:17:58;;;;;;;;;0.50;0.00;;;;;8.42;73.77;102529.50;4935258;29;10581;-65
2022/10/11 04:20:24;;;;;;;;;0.50;0.00;;;;;8.44;73.61;102539.28;4934582;29;10467;-67
2022/10/11 04:22:51;;;;;;;;;1.00;1.00;;;;;8.41;73.48;102537.69;4941191;28;10582;-66
2022/10/11 04:25:17;;;;;;;;;1.75;1.00;;;;;8.40;73.51;102539.53;4934704;29;10604;-66
2022/10/11 04:27:43;;;;;;;;;1.00;1.00;;;;;8.39;73.00;102543.22;4935008;29;10471;-66
2022/10/11 04:30:10;;;;;;;;;2.00;2.00;;;;;8.39;73.37;102537.00;4934302;29;11202;-66
2022/10/11 04:32:37;;;;;;;;;1.00;1.00;;;;;8.39;73.41;102539.69;4934655;29;10655;-66
2022/10/11 04:35:03;;;;;;;;;1.00;1.00;;;;;8.36;73.28;102540.78;4933861;29;10547;-66
2022/10/11 04:37:30;;;;;;;;;0.75;0.75;;;;;8.36;73.15;102545.28;4933334;29;10309;-66
2022/10/11 04:39:56;;;;;;;;;4.75;1.75;;;;;8.36;73.48;102545.28;4934181;29;10418;-65
2022/10/11 04:42:23;;;;;;;;;2.00;1.00;;;;;8.34;73.68;102553.47;4934126;29;10486;-65
2022/10/11 04:44:49;;;;;;;;;0.25;0.25;;;;;8.36;73.82;102554.19;4934436;29;10407;-67
2022/10/11 04:47:15;;;;;;;;;0.00;0.00;;;;;8.36;74.19;102551.50;4934874;29;10408;-67
2022/10/11 04:49:42;;;;;;;;;1.25;0.50;;;;;8.34;74.13;102550.78;4934100;29;11167;-69
2022/10/11 04:52:08;;;;;;;;;1.00;1.00;;;;;8.35;74.13;102557.03;4933688;29;10478;-68
2022/10/11 04:54:35;;;;;;;;;0.50;0.50;;;;;8.36;74.27;102551.50;4932764;29;10399;-66
2022/10/11 04:57:02;;;;;;;;;1.00;1.00;;;;;8.36;74.07;102556.88;4934456;29;10478;-68
2022/10/11 04:59:28;;;;;;;;;1.25;1.25;;;;;8.34;73.73;102561.50;4932338;29;10517;-67
2022/10/11 05:01:54;;;;;;;;;1.00;1.00;;;;;8.32;73.06;102560.81;4933999;29;10624;-68
2022/10/11 05:04:21;;;;;;;;;2.00;1.00;;;;;8.31;73.59;102558.28;4934143;29;10477;-68
2022/10/11 05:06:47;;;;;;;;;1.00;1.00;;;;;8.32;73.92;102549.25;4933522;29;10503;-68
2022/10/11 05:09:14;;;;;;;;;1.00;1.00;;;;;8.31;73.69;102556.44;4933500;29;10437;-65
2022/10/11 05:11:40;;;;;;;;;0.25;0.25;;;;;8.29;73.89;102555.72;4932734;29;10392;-68
2022/10/11 05:14:06;;;;;;;;;1.00;1.00;;;;;8.29;73.51;102563.75;4932771;29;10321;-69
2022/10/11 05:16:34;;;;;;;;;1.25;1.00;;;;;8.28;74.48;102564.75;4933766;29;10340;-68
2022/10/11 05:19:00;;;;;;;;;2.00;2.00;;;;;8.26;73.79;102568.56;4933736;29;11038;-69
2022/10/11 05:21:28;;;;;;;;;1.75;1.00;;;;;8.25;74.06;102573.06;4932088;29;10689;-68
2022/10/11 05:23:56;;;;;;;;;2.00;2.00;;;;;8.24;74.06;102568.69;4933933;29;10474;-68
2022/10/11 05:26:26;;;;;;;;;1.00;1.00;;;;;8.24;73.89;102565.19;4933638;29;11253;-68
2022/10/11 05:28:53;;;;;;;;;1.00;1.00;;;;;8.22;73.66;102569.81;4933804;29;10561;-67
2022/10/11 05:31:20;;;;;;;;;4.00;4.00;;;;;8.18;73.82;102566.53;4946440;29;10372;-69
2022/10/11 05:33:47;;;;;;;;;1.00;1.00;;;;;8.18;73.84;102570.09;4933697;29;10574;-66
2022/10/11 05:36:14;;;;;;;;;3.00;1.00;;;;;8.18;74.35;102577.28;4932111;29;10388;-67
2022/10/11 05:38:40;;;;;;;;;2.50;0.75;;;;;8.20;73.77;102577.16;4933564;29;10640;-68
2022/10/11 05:41:10;;;;;;;;;2.00;2.00;;;;;8.18;73.67;102577.28;4933401;29;10506;-67
2022/10/11 05:43:37;;;;;;;;;1.50;1.50;;;;;8.19;73.47;102573.63;4933883;29;10507;-67
2022/10/11 05:46:04;;;;;;;;;1.00;1.00;;;;;8.19;74.11;102592.41;4933702;29;10565;-67
2022/10/11 05:48:31;;;;;;;;;3.50;2.00;;;;;8.22;73.77;102580.53;4932889;29;10720;-68
2022/10/11 05:51:03;;;;;;;;;2.00;2.00;;;;;8.24;74.20;102587.47;4931550;29;10631;-68
2022/10/11 05:53:31;;;;;;;;;2.50;2.50;;;;;8.28;74.42;102593.44;4936512;29;10803;-67
2022/10/11 05:55:58;;;;;;;;;2.00;2.00;;;;;8.26;74.51;102590.00;4933012;29;11360;-65
2022/10/11 05:58:25;;;;;;;;;2.00;2.00;;;;;8.26;73.78;102588.19;4920349;29;10480;-67
2022/10/11 06:00:52;;;;;;;;;2.00;2.00;;;;;8.26;74.34;102590.00;4932876;29;10560;-68
2022/10/11 06:03:19;;;;;;;;;4.00;4.00;;;;;8.27;74.23;102597.09;4931768;29;10413;-68
2022/10/11 06:05:46;;;;;;;;;3.00;3.00;;;;;8.29;74.49;102597.81;4933174;29;10778;-68
2022/10/11 06:08:13;;;;;;;;;5.00;4.00;;;;;8.33;74.80;102607.28;4930287;28;10663;-67
2022/10/11 06:10:40;;;;;;;;;3.25;3.25;;;;;8.39;75.45;102612.16;4930966;29;10832;-67
2022/10/11 06:13:07;;;;;;;;;3.00;3.00;;;;;8.41;74.47;102604.78;4932868;28;10463;-68
2022/10/11 06:15:37;;;;;;;;;2.00;2.00;;;;;8.46;74.86;102604.38;4933036;29;10578;-68
2022/10/11 06:18:03;;;;;;;;;2.00;1.50;;;;;8.48;74.81;102610.47;4933033;29;10621;-67
2022/10/11 06:20:30;;;;;;;;;1.50;1.50;;;;;8.49;74.20;102612.16;4932752;29;10419;-68
2022/10/11 06:22:57;;;;;;;;;1.00;1.00;;;;;8.52;74.41;102614.56;4932206;29;10486;-68
2022/10/11 06:25:24;;;;;;;;;4.25;1.50;;;;;8.53;74.73;102610.91;4931916;29;10417;-67
2022/10/11 06:27:50;;;;;;;;;3.25;2.00;;;;;8.56;74.71;102616.00;4932489;29;10408;-68
2022/10/11 06:30:16;;;;;;;;;3.00;2.00;;;;;8.61;74.81;102613.75;4932779;29;10423;-70
2022/10/11 06:32:43;;;;;;;;;1.50;1.50;;;;;8.67;74.96;102623.94;4932783;29;10488;-68
2022/10/11 06:35:09;;;;;;;;;6.00;2.00;;;;;8.76;75.71;102615.06;4930448;29;10345;-68
2022/10/11 06:37:36;;;;;;;;;1.00;1.00;;;;;8.80;74.29;102624.53;4931581;29;10507;-67
2022/10/11 06:40:02;;;;;;;;;1.00;0.00;;;;;8.84;75.08;102625.09;4932366;29;10289;-67
2022/10/11 06:42:29;;;;;;;;;1.00;1.00;;;;;8.85;74.77;102619.59;4932355;29;10199;-67
2022/10/11 06:44:55;;;;;;;;;0.00;0.00;;;;;8.88;74.48;102634.56;4929984;29;10239;-68
2022/10/11 06:47:22;;;;;;;;;1.00;1.00;;;;;9.07;75.60;102633.72;4913681;29;10193;-68
2022/10/11 06:49:48;;;;;;;;;3.50;1.75;;;;;9.07;75.08;102633.72;4928226;29;10127;-68
2022/10/11 06:52:14;;;;;;;;;2.00;1.00;;;;;9.03;74.71;102640.38;4932118;29;10103;-67
2022/10/11 06:54:41;;;;;;;;;0.50;0.50;;;;;9.00;74.79;102649.59;4944375;29;10230;-67
2022/10/11 06:57:10;;;;;;;;;1.00;1.00;;;;;9.00;74.16;102654.09;4930357;29;10196;-67
2022/10/11 06:59:37;;;;;;;;;1.25;0.00;;;;;9.02;74.44;102652.97;4932083;29;10185;-66
2022/10/11 07:02:03;;;;;;;;;1.25;1.00;;;;;9.05;74.27;102663.44;4938663;29;10077;-67
2022/10/11 07:04:30;;;;;;;;;1.00;1.00;;;;;9.05;73.89;102660.75;4930952;29;10266;-67
2022/10/11 07:06:56;;;;;;;;;1.00;0.00;;;;;9.06;74.41;102658.91;4930452;29;10112;-68
2022/10/11 07:09:22;;;;;;;;;1.00;0.75;;;;;9.07;74.11;102655.22;4940507;29;10063;-68
2022/10/11 07:11:49;;;;;;;;;0.75;0.75;;;;;9.11;73.94;102667.38;4944193;28;10232;-66
2022/10/11 07:14:15;;;;;;;;;1.00;1.00;;;;;9.13;73.98;102665.44;4931943;29;10111;-66
2022/10/11 07:16:41;;;;;;;;;1.75;1.75;;;;;9.15;73.98;102671.50;4931491;29;10857;-67
2022/10/11 07:19:09;;;;;;;;;1.75;1.75;;;;;9.15;73.58;102666.13;4930085;29;10190;-68
2022/10/11 07:21:35;;;;;;;;;0.75;0.75;;;;;9.15;73.60;102669.69;4927474;29;10255;-67
2022/10/11 07:24:02;;;;;;;;;0.50;0.25;;;;;9.18;73.61;102671.22;4944362;28;10092;-67
2022/10/11 07:26:29;;;;;;;;;1.50;1.00;;;;;9.20;73.55;102671.94;4935095;29;10102;-69
2022/10/11 07:29:04;;;;;;;;;0.00;0.00;;;;;9.22;73.12;102677.16;4943104;29;10050;-67
2022/10/11 07:31:30;;;;;;;;;1.00;1.00;;;;;9.25;73.24;102676.88;4934244;29;10049;-68
2022/10/11 07:33:57;;;;;;;;;1.00;1.00;;;;;9.27;73.67;102685.66;4934671;29;10169;-68
2022/10/11 07:36:24;;;;;;;;;1.00;1.00;;;;;9.28;73.31;102679.31;4933557;29;10308;-68
2022/10/11 07:38:50;;;;;;;;;1.75;0.50;;;;;9.28;73.11;102679.31;4932077;29;10920;-68
2022/10/11 07:41:17;;;;;;;;;2.50;1.50;;;;;9.26;73.28;102679.44;4934411;29;10230;-69
2022/10/11 07:43:46;;;;;;;;;1.00;1.00;;;;;9.29;72.89;102681.84;4937051;28;10269;-67
2022/10/11 07:46:13;;;;;;;;;0.00;0.00;;;;;9.33;72.89;102677.88;4937921;28;10117;-68
2022/10/11 07:48:40;;;;;;;;;2.00;2.00;;;;;9.38;72.61;102677.44;4932614;28;11031;-69
2022/10/11 07:51:19;;;;;;;;;2.50;1.00;;;;;9.44;72.45;102682.28;4928991;29;10169;-67
2022/10/11 07:53:48;;;;;;;;;2.00;0.75;;;;;9.49;72.55;102674.63;4937109;28;10168;-69
2022/10/11 07:56:18;;;;;;;;;0.00;0.00;;;;;9.56;72.00;102685.63;4931093;29;10117;-68
2022/10/11 07:58:52;;;;;;;;;1.00;1.00;;;;;9.64;71.94;102689.34;4917964;28;10138;-67
2022/10/11 08:01:19;;;;;;;;;4.25;1.25;;;;;9.69;71.85;102688.91;4935228;29;10157;-69
2022/10/11 08:03:46;;;;;;;;;1.75;1.75;;;;;9.74;71.81;102691.16;4935206;28;10099;-68
2022/10/11 08:06:15;;;;;;;;;4.00;0.75;;;;;9.79;71.62;102691.56;4934986;29;10117;-67
2022/10/11 08:08:41;;;;;;;;;4.25;0.50;;;;;9.86;71.28;102693.53;4932031;28;10032;-69
2022/10/11 08:11:08;;;;;;;;;1.00;1.00;;;;;9.94;71.97;102694.69;4934857;29;10212;-68
2022/10/11 08:13:34;;;;;;;;;0.75;0.00;;;;;9.99;71.36;102701.31;4922932;29;10217;-69
2022/10/11 08:16:09;;;;;;;;;0.25;0.25;;;;;10.04;71.61;102704.41;4934582;29;9943;-67
2022/10/11 08:18:35;;;;;;;;;0.00;0.00;;;;;10.09;71.56;102709.38;4934760;29;9954;-67
2022/10/11 08:21:10;;;;;;;;;0.75;0.75;;;;;10.15;71.42;102715.00;4935847;29;9915;-68
2022/10/11 08:23:36;;;;;;;;;2.00;0.00;;;;;10.20;71.58;102714.56;4934767;29;10054;-69
2022/10/11 08:26:03;;;;;;;;;1.00;0.00;;;;;10.22;71.51;102711.75;4934725;29;10015;-66
2022/10/11 08:28:30;;;;;;;;;0.00;0.00;;;;;10.24;71.64;102715.97;4934637;29;9961;-67
2022/10/11 08:30:57;;;;;;;;;0.00;0.00;;;;;10.26;71.54;102719.41;4933655;29;10124;-67
2022/10/11 08:33:25;;;;;;;;;1.00;1.00;;;;;10.27;71.12;102718.41;4934541;29;9827;-68
2022/10/11 08:35:52;;;;;;;;;2.75;1.00;;;;;10.30;71.39;102718.13;4938416;28;9762;-67
2022/10/11 08:38:20;;;;;;;;;2.50;1.00;;;;;10.30;71.66;102720.81;4950724;28;9871;-68
2022/10/11 08:40:55;;;;;;;;;0.00;0.00;;;;;10.34;71.75;102716.84;4934442;28;9922;-68
2022/10/11 08:43:57;;;;;;;;;3.50;1.00;;;;;10.38;71.64;102728.16;4934427;29;9944;-69
2022/10/11 08:46:32;;;;;;;;;2.00;0.25;;;;;10.42;71.47;102736.78;4925442;29;10163;-67
2022/10/11 08:49:00;;;;;;;;;3.00;1.00;;;;;10.45;71.63;102733.78;4934157;28;10697;-68
2022/10/11 08:51:31;;;;;;;;;0.75;0.75;;;;;10.50;71.14;102728.84;4933992;29;9917;-67
2022/10/11 08:54:05;;;;;;;;;0.50;0.50;;;;;10.54;71.39;102732.94;4934492;28;9790;-67
2022/10/11 08:56:38;;;;;;;;;0.25;0.25;;;;;10.56;71.51;102726.38;4929709;29;9800;-67
2022/10/11 08:59:10;;;;;;;;;3.00;1.00;;;;;10.57;71.32;102736.19;4927828;28;10418;-67
2022/10/11 09:01:43;;;;;;;;;3.00;1.25;;;;;10.57;71.42;102732.59;4933926;28;9932;-67
2022/10/11 09:04:14;;;;;;;;;1.00;1.00;;;;;10.60;71.17;102732.31;4935607;28;9868;-64
2022/10/11 09:06:56;;;;;;;;;5.00;1.00;;;;;10.60;70.96;102743.09;4950118;28;10002;-65
2022/10/11 09:10:05;;;;;;;;;2.00;2.00;;;;;10.63;71.10;102748.19;4947441;29;9849;-67
2022/10/11 09:12:56;;;;;;;;;1.00;1.00;;;;;10.63;71.33;102748.19;4933858;29;9825;-68
2022/10/11 09:15:39;;;;;;;;;1.00;1.00;;;;;10.66;70.72;102744.38;4934065;29;10626;-68
2022/10/11 09:18:17;;;;;;;;;1.50;0.00;;;;;10.70;70.80;102740.38;4925776;28;10910;-68
2022/10/11 09:20:51;;;;;;;;;1.50;1.50;;;;;10.74;70.72;102750.69;4924813;28;9753;-68
2022/10/11 09:24:03;;;;;;;;;1.00;1.00;;;;;10.81;70.96;102743.69;4931694;29;9974;-68
2022/10/11 09:26:54;;;;;;;;;2.75;1.00;;;;;10.88;71.14;102746.66;4932995;29;9708;-66
2022/10/11 09:29:54;;;;;;;;;4.00;1.00;;;;;11.00;71.28;102748.16;4914404;29;9782;-68
2022/10/11 09:32:23;;;;;;;;;1.25;1.00;;;;;11.08;70.87;102752.78;4931416;29;9919;-67
2022/10/11 09:34:58;;;;;;;;;4.25;2.00;;;;;11.24;70.30;102746.75;4931708;28;9713;-67
2022/10/11 09:37:57;;;;;;;;;4.50;4.50;;;;;11.31;70.24;102740.59;4931585;29;9828;-64
2022/10/11 09:40:43;;;;;;;;;1.00;1.00;;;;;11.37;69.75;102750.75;4928288;28;9742;-67
2022/10/11 09:43:10;;;;;;;;;1.50;1.50;;;;;11.42;69.39;102752.13;4933553;29;9712;-66
2022/10/11 09:45:37;;;;;;;;;3.00;2.00;;;;;11.43;69.59;102756.56;4933833;28;9687;-67
2022/10/11 09:48:06;;;;;;;;;1.00;1.00;;;;;11.48;69.33;102754.25;4932040;28;10405;-66
2022/10/11 09:50:33;;;;;;;;;2.00;2.00;;;;;11.48;69.17;102747.00;4933752;28;9614;-67
2022/10/11 09:53:03;;;;;;;;;2.00;2.00;;;;;11.49;68.92;102742.44;4933163;29;9664;-67
2022/10/11 09:55:42;;;;;;;;;3.50;1.75;;;;;11.53;68.93;102746.53;4931228;28;9658;-68
2022/10/11 09:58:29;;;;;;;;;3.50;3.50;;;;;11.53;69.05;102746.53;4932169;29;9611;-66
2022/10/11 10:00:58;;;;;;;;;2.25;1.75;;;;;11.59;68.73;102756.72;4930886;28;9691;-66
2022/10/11 10:03:35;;;;;;;;;2.00;1.00;;;;;11.67;68.65;102756.78;4952294;28;9697;-65
2022/10/11 10:06:16;;;;;;;;;3.00;2.00;;;;;11.69;69.10;102749.38;4931735;29;9638;-65
2022/10/11 10:08:45;;;;;;;;;3.00;3.00;;;;;11.73;68.73;102749.91;4932307;29;9621;-66
2022/10/11 10:11:13;;;;;;;;;3.00;1.75;;;;;11.77;69.04;102744.06;4919749;29;9684;-65
2022/10/11 10:13:50;;;;;;;;;4.25;2.25;;;;;11.80;68.81;102749.16;4932283;29;9592;-65
2022/10/11 10:16:26;;;;;;;;;2.75;0.50;;;;;11.89;69.17;102747.38;4928530;29;9727;-66
2022/10/11 10:18:53;;;;;;;;;2.00;2.00;;;;;11.99;69.06;102745.47;4932214;29;9586;-65
2022/10/11 10:21:26;;;;;;;;;2.50;2.50;;;;;12.01;69.07;102748.00;4934523;29;9585;-66
2022/10/11 10:23:54;;;;;;;;;2.50;2.50;;;;;12.04;68.70;102742.28;4925579;29;9903;-68
2022/10/11 10:26:25;;;;;;;;;1.00;1.00;;;;;12.07;68.56;102745.53;4926997;28;9637;-68
2022/10/11 10:29:00;;;;;;;;;2.75;2.00;;;;;12.12;68.94;102742.34;4926361;29;9613;-68
2022/10/11 10:31:47;;;;;;;;;1.00;1.00;;;;;12.20;68.61;102739.69;4926143;29;11205;-67
2022/10/11 10:34:37;;;;;;;;;4.25;2.00;;;;;12.28;68.41;102736.22;4925853;29;9633;-66
2022/10/11 10:37:12;;;;;;;;;1.25;1.25;;;;;12.33;68.25;102729.31;4924737;29;9490;-65
2022/10/11 10:39:48;;;;;;;;;2.00;2.00;;;;;12.39;68.25;102738.63;4926752;29;9398;-64
2022/10/11 10:42:18;;;;;;;;;1.00;1.00;;;;;12.46;68.69;102736.13;4927941;29;10125;-65
2022/10/11 10:44:55;;;;;;;;;2.00;2.00;;;;;12.59;68.55;102737.38;4925352;29;9329;-65
2022/10/11 10:47:37;;;;;;;;;3.00;2.00;;;;;12.66;68.44;102729.47;4930599;29;9507;-66
2022/10/11 10:50:13;;;;;;;;;2.67;1.67;;;;;12.68;67.88;102732.00;4926704;29;9422;-67
2022/10/11 10:53:23;;;;;;;;;1.00;1.00;;;;;12.65;67.08;102729.66;4938928;29;9314;-67
2022/10/11 10:56:06;;;;;;;;;3.67;2.00;;;;;12.63;66.57;102727.94;4931997;29;9428;-67
2022/10/11 10:58:58;;;;;;;;;2.00;1.67;;;;;12.62;65.80;102725.41;4932468;29;9428;-67
2022/10/11 11:01:27;;;;;;;;;1.00;1.00;;;;;12.73;65.36;102725.13;4926154;29;10097;-68
2022/10/11 11:04:21;;;;;;;;;3.00;2.00;;;;;12.77;65.18;102725.66;4936014;29;9313;-69
2022/10/11 11:07:03;;;;;;;;;3.50;3.50;;;;;12.80;65.14;102723.47;4936018;29;9396;-68
2022/10/11 11:09:50;;;;;;;;;1.00;1.00;;;;;12.92;64.59;102720.47;4935446;29;9394;-67
2022/10/11 11:12:34;;;;;;;;;3.00;3.00;;;;;12.95;64.58;102712.03;4935878;29;9388;-67
2022/10/11 11:15:17;;;;;;;;;1.00;1.00;;;;;13.06;64.49;102711.72;4936888;29;10006;-67
2022/10/11 11:18:15;;;;;;;;;1.00;1.00;;;;;13.17;63.82;102703.31;4936132;29;9303;-68
2022/10/11 11:21:00;;;;;;;;;2.33;1.67;;;;;13.28;63.96;102710.28;4935461;29;9298;-68
2022/10/11 11:23:44;;;;;;;;;0.67;0.67;;;;;13.32;63.48;102709.78;4935756;29;9196;-68
2022/10/11 11:26:32;;;;;;;;;2.67;1.33;;;;;13.32;63.42;102717.03;4931757;29;9158;-68
2022/10/11 11:29:06;;;;;;;;;0.25;0.00;;;;;13.34;63.34;102709.63;4935913;29;9251;-67
2022/10/11 11:31:39;;;;;;;;;1.00;1.00;;;;;13.43;62.77;102708.63;4935738;29;8848;-67
2022/10/11 11:34:22;;;;;;;;;1.00;0.00;;;;;13.53;62.79;102708.44;4935718;29;9000;-69
2022/10/11 11:37:00;;;;;;;;;0.00;0.00;;;;;13.58;62.55;102708.81;4935331;29;9101;-68
2022/10/11 11:39:43;;;;;;;;;1.00;1.00;;;;;13.59;61.73;102710.50;4934611;29;9098;-68
2022/10/11 11:42:28;;;;;;;;;0.67;0.67;;;;;13.57;61.02;102707.09;4935804;29;9119;-68
2022/10/11 11:44:58;;;;;;;;;1.00;1.00;;;;;13.78;61.42;102702.03;4935833;29;9006;-68
2022/10/11 11:47:58;;;;;;;;;1.25;1.25;;;;;13.87;60.46;102702.88;4934956;29;9024;-69
2022/10/11 11:50:25;;;;;;;;;2.67;1.00;;;;;13.90;59.65;102702.53;4925354;29;8849;-68
2022/10/11 11:52:59;;;;;;;;;6.00;2.00;;;;;13.94;59.91;102700.34;4942342;29;9059;-69
2022/10/11 11:55:32;;;;;;;;;1.00;1.00;;;;;13.90;59.66;102705.25;4929656;29;9070;-69
2022/10/11 11:58:11;;;;;;;;;1.00;1.00;;;;;14.03;59.20;102702.03;4934593;29;9032;-68